sensor_id;sensor_type;location;lat;lon;timestamp;P1;durP1;ratioP1;P2;durP2;ratioP2
12950;SDS011;6540;50.858;7.232;2022-10-31T00:01:01;9.40;;;4.13;;
12950;SDS011;6540;50.858;7.232;2022-10-31T00:03:33;9.53;;;4.27;;
12950;SDS011;6540;50.858;7.232;2022-10-31T00:05:59;10.03;;;4.40;;
12950;SDS011;6540;50.858;7.232;2022-10-31T00:08:26;11.73;;;4.07;;
12950;SDS011;6540;50.858;7.232;2022-10-31T00:10:52;6.40;;;4.20;;
12950;SDS011;6540;50.858;7.232;2022-10-31T00:13:17;8.57;;;4.00;;
12950;SDS011;6540;50.858;7.232;2022-10-31T00:15:42;9.27;;;5.33;;
12950;SDS011;6540;50.858;7.232;2022-10-31T00:18:08;6.77;;;4.60;;
12950;SDS011;6540;50.858;7.232;2022-10-31T00:20:35;4.20;;;3.33;;
12950;SDS011;6540;50.858;7.232;2022-10-31T00:23:00;9.33;;;5.03;;
12950;SDS011;6540;50.858;7.232;2022-10-31T00:25:27;6.83;;;4.67;;
12950;SDS011;6540;50.858;7.232;2022-10-31T00:27:53;6.20;;;5.00;;
12950;SDS011;6540;50.858;7.232;2022-10-31T00:30:19;9.77;;;4.87;;
12950;SDS011;6540;50.858;7.232;2022-10-31T00:32:44;5.80;;;4.50;;
12950;SDS011;6540;50.858;7.232;2022-10-31T00:35:09;7.20;;;5.20;;
12950;SDS011;6540;50.858;7.232;2022-10-31T00:37:35;8.10;;;4.00;;
12950;SDS011;6540;50.858;7.232;2022-10-31T00:40:00;17.37;;;5.03;;
12950;SDS011;6540;50.858;7.232;2022-10-31T00:42:26;9.90;;;4.50;;
12950;SDS011;6540;50.858;7.232;2022-10-31T00:44:51;8.17;;;4.73;;
12950;SDS011;6540;50.858;7.232;2022-10-31T00:47:16;9.27;;;4.53;;
12950;SDS011;6540;50.858;7.232;2022-10-31T00:49:42;9.67;;;4.97;;
12950;SDS011;6540;50.858;7.232;2022-10-31T00:52:07;8.27;;;4.00;;
12950;SDS011;6540;50.858;7.232;2022-10-31T00:54:32;7.20;;;4.30;;
12950;SDS011;6540;50.858;7.232;2022-10-31T00:56:58;7.63;;;4.87;;
12950;SDS011;6540;50.858;7.232;2022-10-31T00:59:23;6.67;;;4.97;;
12950;SDS011;6540;50.858;7.232;2022-10-31T01:01:49;11.73;;;5.20;;
12950;SDS011;6540;50.858;7.232;2022-10-31T01:04:14;5.83;;;4.57;;
12950;SDS011;6540;50.858;7.232;2022-10-31T01:06:40;9.83;;;4.57;;
12950;SDS011;6540;50.858;7.232;2022-10-31T01:09:06;8.17;;;4.60;;
12950;SDS011;6540;50.858;7.232;2022-10-31T01:11:31;4.70;;;4.20;;
12950;SDS011;6540;50.858;7.232;2022-10-31T01:13:57;5.87;;;4.27;;
12950;SDS011;6540;50.858;7.232;2022-10-31T01:16:23;7.13;;;4.93;;
12950;SDS011;6540;50.858;7.232;2022-10-31T01:18:50;5.80;;;4.40;;
12950;SDS011;6540;50.858;7.232;2022-10-31T01:21:17;4.63;;;4.07;;
12950;SDS011;6540;50.858;7.232;2022-10-31T01:23:45;8.90;;;4.00;;
12950;SDS011;6540;50.858;7.232;2022-10-31T01:26:14;6.60;;;3.90;;
12950;SDS011;6540;50.858;7.232;2022-10-31T01:31:11;7.20;;;4.37;;
12950;SDS011;6540;50.858;7.232;2022-10-31T01:33:37;9.10;;;4.90;;
12950;SDS011;6540;50.858;7.232;2022-10-31T01:38:38;10.23;;;5.00;;
12950;SDS011;6540;50.858;7.232;2022-10-31T01:41:03;10.53;;;4.63;;
12950;SDS011;6540;50.858;7.232;2022-10-31T01:49:27;4.23;;;3.70;;
12950;SDS011;6540;50.858;7.232;2022-10-31T01:52:06;6.37;;;4.37;;
12950;SDS011;6540;50.858;7.232;2022-10-31T01:54:33;9.40;;;4.03;;
12950;SDS011;6540;50.858;7.232;2022-10-31T01:57:04;7.47;;;4.50;;
12950;SDS011;6540;50.858;7.232;2022-10-31T01:59:34;8.17;;;3.87;;
12950;SDS011;6540;50.858;7.232;2022-10-31T02:02:05;6.33;;;4.87;;
12950;SDS011;6540;50.858;7.232;2022-10-31T02:04:31;8.53;;;4.70;;
12950;SDS011;6540;50.858;7.232;2022-10-31T02:07:22;6.67;;;4.73;;
12950;SDS011;6540;50.858;7.232;2022-10-31T02:09:52;8.17;;;4.40;;
12950;SDS011;6540;50.858;7.232;2022-10-31T02:12:18;4.77;;;3.73;;
12950;SDS011;6540;50.858;7.232;2022-10-31T02:14:45;13.27;;;5.70;;
12950;SDS011;6540;50.858;7.232;2022-10-31T02:17:11;11.53;;;4.70;;
12950;SDS011;6540;50.858;7.232;2022-10-31T02:22:27;5.87;;;4.40;;
12950;SDS011;6540;50.858;7.232;2022-10-31T02:31:12;8.73;;;5.43;;
12950;SDS011;6540;50.858;7.232;2022-10-31T02:33:42;9.33;;;4.43;;
12950;SDS011;6540;50.858;7.232;2022-10-31T02:36:18;4.63;;;3.40;;
12950;SDS011;6540;50.858;7.232;2022-10-31T02:47:11;7.07;;;5.00;;
12950;SDS011;6540;50.858;7.232;2022-10-31T02:49:56;7.13;;;4.70;;
12950;SDS011;6540;50.858;7.232;2022-10-31T02:52:31;9.77;;;4.93;;
12950;SDS011;6540;50.858;7.232;2022-10-31T02:54:58;9.27;;;4.53;;
12950;SDS011;6540;50.858;7.232;2022-10-31T02:57:25;5.93;;;4.27;;
12950;SDS011;6540;50.858;7.232;2022-10-31T02:59:57;7.03;;;4.43;;
12950;SDS011;6540;50.858;7.232;2022-10-31T03:02:53;6.70;;;3.80;;
12950;SDS011;6540;50.858;7.232;2022-10-31T03:08:30;5.63;;;4.53;;
12950;SDS011;6540;50.858;7.232;2022-10-31T03:11:07;5.83;;;4.40;;
12950;SDS011;6540;50.858;7.232;2022-10-31T03:13:46;7.57;;;4.90;;
12950;SDS011;6540;50.858;7.232;2022-10-31T03:16:47;5.03;;;4.17;;
12950;SDS011;6540;50.858;7.232;2022-10-31T03:19:19;7.03;;;4.43;;
12950;SDS011;6540;50.858;7.232;2022-10-31T03:22:07;11.87;;;5.00;;
12950;SDS011;6540;50.858;7.232;2022-10-31T03:24:40;10.17;;;4.73;;
12950;SDS011;6540;50.858;7.232;2022-10-31T03:27:08;10.80;;;4.83;;
12950;SDS011;6540;50.858;7.232;2022-10-31T03:29:38;7.77;;;4.43;;
12950;SDS011;6540;50.858;7.232;2022-10-31T03:32:08;7.37;;;4.97;;
12950;SDS011;6540;50.858;7.232;2022-10-31T03:34:38;7.47;;;4.53;;
12950;SDS011;6540;50.858;7.232;2022-10-31T03:37:08;6.10;;;4.63;;
12950;SDS011;6540;50.858;7.232;2022-10-31T03:39:39;5.80;;;4.60;;
12950;SDS011;6540;50.858;7.232;2022-10-31T03:42:12;6.93;;;4.43;;
12950;SDS011;6540;50.858;7.232;2022-10-31T03:44:41;6.73;;;3.97;;
12950;SDS011;6540;50.858;7.232;2022-10-31T03:47:11;7.23;;;4.93;;
12950;SDS011;6540;50.858;7.232;2022-10-31T03:49:37;5.70;;;3.83;;
12950;SDS011;6540;50.858;7.232;2022-10-31T03:54:46;8.27;;;4.77;;
12950;SDS011;6540;50.858;7.232;2022-10-31T03:59:55;6.10;;;4.10;;
12950;SDS011;6540;50.858;7.232;2022-10-31T04:02:30;7.33;;;3.83;;
12950;SDS011;6540;50.858;7.232;2022-10-31T04:04:58;8.30;;;4.87;;
12950;SDS011;6540;50.858;7.232;2022-10-31T04:07:25;4.83;;;3.80;;
12950;SDS011;6540;50.858;7.232;2022-10-31T04:09:55;12.20;;;5.37;;
12950;SDS011;6540;50.858;7.232;2022-10-31T04:12:23;4.63;;;4.10;;
12950;SDS011;6540;50.858;7.232;2022-10-31T04:14:50;5.90;;;4.37;;
12950;SDS011;6540;50.858;7.232;2022-10-31T04:17:18;7.77;;;5.60;;
12950;SDS011;6540;50.858;7.232;2022-10-31T04:19:46;7.43;;;4.00;;
12950;SDS011;6540;50.858;7.232;2022-10-31T04:22:12;4.93;;;4.00;;
12950;SDS011;6540;50.858;7.232;2022-10-31T04:24:38;7.67;;;4.43;;
12950;SDS011;6540;50.858;7.232;2022-10-31T04:27:05;7.87;;;3.80;;
12950;SDS011;6540;50.858;7.232;2022-10-31T04:29:31;5.70;;;4.27;;
12950;SDS011;6540;50.858;7.232;2022-10-31T04:31:56;5.03;;;4.23;;
12950;SDS011;6540;50.858;7.232;2022-10-31T04:34:21;5.47;;;4.67;;
12950;SDS011;6540;50.858;7.232;2022-10-31T04:36:47;5.63;;;3.57;;
12950;SDS011;6540;50.858;7.232;2022-10-31T04:39:12;6.87;;;5.20;;
12950;SDS011;6540;50.858;7.232;2022-10-31T04:41:38;14.47;;;4.80;;
12950;SDS011;6540;50.858;7.232;2022-10-31T04:44:03;8.47;;;4.67;;
12950;SDS011;6540;50.858;7.232;2022-10-31T04:46:28;10.17;;;4.53;;
12950;SDS011;6540;50.858;7.232;2022-10-31T04:48:54;8.97;;;4.73;;
12950;SDS011;6540;50.858;7.232;2022-10-31T04:51:22;5.50;;;4.37;;
12950;SDS011;6540;50.858;7.232;2022-10-31T04:53:48;9.10;;;4.60;;
12950;SDS011;6540;50.858;7.232;2022-10-31T04:56:13;5.33;;;4.20;;
12950;SDS011;6540;50.858;7.232;2022-10-31T04:58:39;6.93;;;5.13;;
12950;SDS011;6540;50.858;7.232;2022-10-31T05:01:04;6.93;;;3.80;;
12950;SDS011;6540;50.858;7.232;2022-10-31T05:03:29;15.13;;;4.60;;
12950;SDS011;6540;50.858;7.232;2022-10-31T05:05:55;4.40;;;3.67;;
12950;SDS011;6540;50.858;7.232;2022-10-31T05:08:20;6.50;;;3.87;;
12950;SDS011;6540;50.858;7.232;2022-10-31T05:10:45;8.07;;;4.17;;
12950;SDS011;6540;50.858;7.232;2022-10-31T05:13:11;6.30;;;4.00;;
12950;SDS011;6540;50.858;7.232;2022-10-31T05:15:36;5.03;;;4.20;;
12950;SDS011;6540;50.858;7.232;2022-10-31T05:18:02;6.27;;;4.23;;
12950;SDS011;6540;50.858;7.232;2022-10-31T05:20:28;7.33;;;5.20;;
12950;SDS011;6540;50.858;7.232;2022-10-31T05:22:55;8.37;;;5.10;;
12950;SDS011;6540;50.858;7.232;2022-10-31T05:25:22;7.40;;;4.60;;
12950;SDS011;6540;50.858;7.232;2022-10-31T05:27:51;5.60;;;4.67;;
12950;SDS011;6540;50.858;7.232;2022-10-31T05:30:21;9.70;;;4.30;;
12950;SDS011;6540;50.858;7.232;2022-10-31T05:32:52;5.60;;;4.10;;
12950;SDS011;6540;50.858;7.232;2022-10-31T05:35:19;7.73;;;4.80;;
12950;SDS011;6540;50.858;7.232;2022-10-31T05:37:46;7.73;;;4.93;;
12950;SDS011;6540;50.858;7.232;2022-10-31T05:40:12;9.30;;;5.23;;
12950;SDS011;6540;50.858;7.232;2022-10-31T05:42:39;6.13;;;4.83;;
12950;SDS011;6540;50.858;7.232;2022-10-31T05:45:06;7.10;;;5.43;;
12950;SDS011;6540;50.858;7.232;2022-10-31T05:47:32;8.30;;;5.67;;
12950;SDS011;6540;50.858;7.232;2022-10-31T05:49:58;9.60;;;5.23;;
12950;SDS011;6540;50.858;7.232;2022-10-31T05:52:23;6.27;;;4.67;;
12950;SDS011;6540;50.858;7.232;2022-10-31T05:54:48;9.00;;;5.57;;
12950;SDS011;6540;50.858;7.232;2022-10-31T05:57:13;8.93;;;5.10;;
12950;SDS011;6540;50.858;7.232;2022-10-31T05:59:39;8.00;;;4.90;;
12950;SDS011;6540;50.858;7.232;2022-10-31T06:02:04;10.13;;;4.53;;
12950;SDS011;6540;50.858;7.232;2022-10-31T06:04:30;8.77;;;4.90;;
12950;SDS011;6540;50.858;7.232;2022-10-31T06:06:56;8.23;;;4.73;;
12950;SDS011;6540;50.858;7.232;2022-10-31T06:09:22;5.63;;;4.57;;
12950;SDS011;6540;50.858;7.232;2022-10-31T06:11:47;11.80;;;4.87;;
12950;SDS011;6540;50.858;7.232;2022-10-31T06:14:13;4.83;;;3.67;;
12950;SDS011;6540;50.858;7.232;2022-10-31T06:16:38;9.20;;;4.20;;
12950;SDS011;6540;50.858;7.232;2022-10-31T06:19:03;12.60;;;4.33;;
12950;SDS011;6540;50.858;7.232;2022-10-31T06:21:29;6.07;;;4.73;;
12950;SDS011;6540;50.858;7.232;2022-10-31T06:23:54;5.50;;;4.63;;
12950;SDS011;6540;50.858;7.232;2022-10-31T06:26:19;6.43;;;4.00;;
12950;SDS011;6540;50.858;7.232;2022-10-31T06:28:45;5.27;;;4.13;;
12950;SDS011;6540;50.858;7.232;2022-10-31T06:31:10;7.67;;;4.40;;
12950;SDS011;6540;50.858;7.232;2022-10-31T06:33:35;10.30;;;4.97;;
12950;SDS011;6540;50.858;7.232;2022-10-31T06:36:01;6.67;;;4.67;;
12950;SDS011;6540;50.858;7.232;2022-10-31T06:38:27;5.80;;;4.87;;
12950;SDS011;6540;50.858;7.232;2022-10-31T06:40:53;6.20;;;4.47;;
12950;SDS011;6540;50.858;7.232;2022-10-31T06:43:19;5.50;;;4.83;;
12950;SDS011;6540;50.858;7.232;2022-10-31T06:45:45;7.97;;;5.00;;
12950;SDS011;6540;50.858;7.232;2022-10-31T06:48:11;9.57;;;4.90;;
12950;SDS011;6540;50.858;7.232;2022-10-31T06:50:36;11.43;;;4.63;;
12950;SDS011;6540;50.858;7.232;2022-10-31T06:53:02;11.80;;;5.03;;
12950;SDS011;6540;50.858;7.232;2022-10-31T06:55:27;6.57;;;4.67;;
12950;SDS011;6540;50.858;7.232;2022-10-31T06:57:57;8.93;;;4.67;;
12950;SDS011;6540;50.858;7.232;2022-10-31T07:00:24;9.03;;;4.97;;
12950;SDS011;6540;50.858;7.232;2022-10-31T07:03:03;7.73;;;4.53;;
12950;SDS011;6540;50.858;7.232;2022-10-31T07:05:31;8.37;;;4.43;;
12950;SDS011;6540;50.858;7.232;2022-10-31T07:07:58;8.17;;;4.77;;
12950;SDS011;6540;50.858;7.232;2022-10-31T07:10:28;6.00;;;3.73;;
12950;SDS011;6540;50.858;7.232;2022-10-31T07:12:55;5.97;;;4.13;;
12950;SDS011;6540;50.858;7.232;2022-10-31T07:15:25;7.43;;;4.40;;
12950;SDS011;6540;50.858;7.232;2022-10-31T07:17:52;6.27;;;4.33;;
12950;SDS011;6540;50.858;7.232;2022-10-31T07:20:17;6.30;;;4.83;;
12950;SDS011;6540;50.858;7.232;2022-10-31T07:22:43;6.80;;;3.77;;
12950;SDS011;6540;50.858;7.232;2022-10-31T07:25:09;9.80;;;4.97;;
12950;SDS011;6540;50.858;7.232;2022-10-31T07:27:38;7.10;;;4.97;;
12950;SDS011;6540;50.858;7.232;2022-10-31T07:30:05;10.40;;;6.63;;
12950;SDS011;6540;50.858;7.232;2022-10-31T07:32:37;7.50;;;4.70;;
12950;SDS011;6540;50.858;7.232;2022-10-31T07:35:07;6.87;;;5.10;;
12950;SDS011;6540;50.858;7.232;2022-10-31T07:37:33;5.90;;;4.33;;
12950;SDS011;6540;50.858;7.232;2022-10-31T07:39:59;8.53;;;5.40;;
12950;SDS011;6540;50.858;7.232;2022-10-31T07:42:24;9.40;;;5.20;;
12950;SDS011;6540;50.858;7.232;2022-10-31T07:44:50;8.67;;;5.10;;
12950;SDS011;6540;50.858;7.232;2022-10-31T07:47:15;17.37;;;5.13;;
12950;SDS011;6540;50.858;7.232;2022-10-31T07:49:40;7.17;;;4.67;;
12950;SDS011;6540;50.858;7.232;2022-10-31T07:52:05;6.10;;;5.17;;
12950;SDS011;6540;50.858;7.232;2022-10-31T07:54:31;6.87;;;6.00;;
12950;SDS011;6540;50.858;7.232;2022-10-31T07:56:56;8.77;;;5.50;;
12950;SDS011;6540;50.858;7.232;2022-10-31T07:59:22;7.10;;;4.60;;
12950;SDS011;6540;50.858;7.232;2022-10-31T08:01:47;11.30;;;5.97;;
12950;SDS011;6540;50.858;7.232;2022-10-31T08:04:12;11.17;;;5.20;;
12950;SDS011;6540;50.858;7.232;2022-10-31T08:06:38;9.40;;;5.17;;
12950;SDS011;6540;50.858;7.232;2022-10-31T08:09:03;6.83;;;4.60;;
12950;SDS011;6540;50.858;7.232;2022-10-31T08:11:28;7.33;;;5.20;;
12950;SDS011;6540;50.858;7.232;2022-10-31T08:13:54;10.03;;;6.20;;
12950;SDS011;6540;50.858;7.232;2022-10-31T08:16:19;6.97;;;6.10;;
12950;SDS011;6540;50.858;7.232;2022-10-31T08:18:44;11.40;;;5.30;;
12950;SDS011;6540;50.858;7.232;2022-10-31T08:21:10;7.77;;;5.77;;
12950;SDS011;6540;50.858;7.232;2022-10-31T08:23:35;8.67;;;4.97;;
12950;SDS011;6540;50.858;7.232;2022-10-31T08:26:01;10.73;;;5.80;;
12950;SDS011;6540;50.858;7.232;2022-10-31T08:28:26;7.63;;;5.73;;
12950;SDS011;6540;50.858;7.232;2022-10-31T08:30:51;7.40;;;4.87;;
12950;SDS011;6540;50.858;7.232;2022-10-31T08:33:17;9.17;;;5.30;;
12950;SDS011;6540;50.858;7.232;2022-10-31T08:35:43;6.43;;;5.30;;
12950;SDS011;6540;50.858;7.232;2022-10-31T08:38:09;8.33;;;5.30;;
12950;SDS011;6540;50.858;7.232;2022-10-31T08:40:36;6.40;;;5.20;;
12950;SDS011;6540;50.858;7.232;2022-10-31T08:43:03;10.30;;;5.70;;
12950;SDS011;6540;50.858;7.232;2022-10-31T08:45:31;8.03;;;4.87;;
12950;SDS011;6540;50.858;7.232;2022-10-31T08:47:58;11.03;;;5.13;;
12950;SDS011;6540;50.858;7.232;2022-10-31T08:50:25;10.20;;;5.83;;
12950;SDS011;6540;50.858;7.232;2022-10-31T08:52:50;8.90;;;5.63;;
12950;SDS011;6540;50.858;7.232;2022-10-31T08:55:16;12.60;;;5.80;;
12950;SDS011;6540;50.858;7.232;2022-10-31T08:57:41;11.53;;;5.23;;
12950;SDS011;6540;50.858;7.232;2022-10-31T09:00:07;7.40;;;5.13;;
12950;SDS011;6540;50.858;7.232;2022-10-31T09:02:35;12.97;;;5.80;;
12950;SDS011;6540;50.858;7.232;2022-10-31T09:05:03;9.93;;;5.97;;
12950;SDS011;6540;50.858;7.232;2022-10-31T09:07:29;10.50;;;6.47;;
12950;SDS011;6540;50.858;7.232;2022-10-31T09:09:54;11.97;;;7.87;;
12950;SDS011;6540;50.858;7.232;2022-10-31T09:12:20;12.83;;;6.43;;
12950;SDS011;6540;50.858;7.232;2022-10-31T09:14:46;9.03;;;5.47;;
12950;SDS011;6540;50.858;7.232;2022-10-31T09:17:12;10.23;;;6.30;;
12950;SDS011;6540;50.858;7.232;2022-10-31T09:19:37;7.77;;;6.87;;
12950;SDS011;6540;50.858;7.232;2022-10-31T09:22:02;11.17;;;6.43;;
12950;SDS011;6540;50.858;7.232;2022-10-31T09:24:28;13.93;;;7.10;;
12950;SDS011;6540;50.858;7.232;2022-10-31T09:26:53;10.00;;;5.70;;
12950;SDS011;6540;50.858;7.232;2022-10-31T09:29:18;9.67;;;5.53;;
12950;SDS011;6540;50.858;7.232;2022-10-31T09:31:44;9.90;;;6.23;;
12950;SDS011;6540;50.858;7.232;2022-10-31T09:34:09;11.43;;;5.93;;
12950;SDS011;6540;50.858;7.232;2022-10-31T09:36:34;7.37;;;6.07;;
12950;SDS011;6540;50.858;7.232;2022-10-31T09:39:00;8.90;;;6.10;;
12950;SDS011;6540;50.858;7.232;2022-10-31T09:41:34;10.63;;;6.43;;
12950;SDS011;6540;50.858;7.232;2022-10-31T09:44:10;9.63;;;5.87;;
12950;SDS011;6540;50.858;7.232;2022-10-31T09:52:21;16.67;;;5.63;;
12950;SDS011;6540;50.858;7.232;2022-10-31T09:57:24;10.43;;;6.53;;
12950;SDS011;6540;50.858;7.232;2022-10-31T09:59:53;9.30;;;5.37;;
12950;SDS011;6540;50.858;7.232;2022-10-31T10:02:38;7.73;;;5.60;;
12950;SDS011;6540;50.858;7.232;2022-10-31T10:05:11;5.63;;;4.70;;
12950;SDS011;6540;50.858;7.232;2022-10-31T10:07:48;7.17;;;5.17;;
12950;SDS011;6540;50.858;7.232;2022-10-31T10:10:22;8.30;;;5.10;;
12950;SDS011;6540;50.858;7.232;2022-10-31T10:15:53;9.70;;;5.23;;
12950;SDS011;6540;50.858;7.232;2022-10-31T10:21:49;9.90;;;5.20;;
12950;SDS011;6540;50.858;7.232;2022-10-31T10:24:48;9.07;;;4.73;;
12950;SDS011;6540;50.858;7.232;2022-10-31T10:30:26;9.57;;;5.17;;
12950;SDS011;6540;50.858;7.232;2022-10-31T10:35:50;7.90;;;5.10;;
12950;SDS011;6540;50.858;7.232;2022-10-31T10:41:18;11.17;;;5.63;;
12950;SDS011;6540;50.858;7.232;2022-10-31T10:43:48;9.67;;;5.47;;
12950;SDS011;6540;50.858;7.232;2022-10-31T10:49:17;8.27;;;5.10;;
12950;SDS011;6540;50.858;7.232;2022-10-31T10:59:59;9.33;;;4.53;;
12950;SDS011;6540;50.858;7.232;2022-10-31T11:02:31;7.00;;;4.57;;
12950;SDS011;6540;50.858;7.232;2022-10-31T11:04:58;7.33;;;5.53;;
12950;SDS011;6540;50.858;7.232;2022-10-31T11:07:26;6.47;;;4.70;;
12950;SDS011;6540;50.858;7.232;2022-10-31T11:10:03;7.57;;;4.63;;
12950;SDS011;6540;50.858;7.232;2022-10-31T11:12:33;12.50;;;4.83;;
12950;SDS011;6540;50.858;7.232;2022-10-31T11:15:00;10.27;;;5.50;;
12950;SDS011;6540;50.858;7.232;2022-10-31T11:17:38;11.67;;;5.97;;
12950;SDS011;6540;50.858;7.232;2022-10-31T11:20:27;11.30;;;4.63;;
12950;SDS011;6540;50.858;7.232;2022-10-31T11:23:18;8.67;;;5.00;;
12950;SDS011;6540;50.858;7.232;2022-10-31T11:25:55;8.87;;;4.97;;
12950;SDS011;6540;50.858;7.232;2022-10-31T11:28:31;9.23;;;4.70;;
12950;SDS011;6540;50.858;7.232;2022-10-31T11:31:00;6.57;;;4.50;;
12950;SDS011;6540;50.858;7.232;2022-10-31T11:33:36;6.83;;;5.00;;
12950;SDS011;6540;50.858;7.232;2022-10-31T11:36:24;5.80;;;4.47;;
12950;SDS011;6540;50.858;7.232;2022-10-31T11:38:52;11.47;;;4.80;;
12950;SDS011;6540;50.858;7.232;2022-10-31T11:41:28;6.57;;;4.83;;
12950;SDS011;6540;50.858;7.232;2022-10-31T11:46:33;7.37;;;4.80;;
12950;SDS011;6540;50.858;7.232;2022-10-31T11:49:04;4.03;;;3.53;;
12950;SDS011;6540;50.858;7.232;2022-10-31T11:51:38;11.03;;;4.27;;
12950;SDS011;6540;50.858;7.232;2022-10-31T11:54:04;11.30;;;4.90;;
12950;SDS011;6540;50.858;7.232;2022-10-31T11:56:41;10.53;;;5.17;;
12950;SDS011;6540;50.858;7.232;2022-10-31T12:01:54;9.33;;;5.10;;
12950;SDS011;6540;50.858;7.232;2022-10-31T12:04:23;7.37;;;4.50;;
12950;SDS011;6540;50.858;7.232;2022-10-31T12:07:19;9.90;;;3.97;;
12950;SDS011;6540;50.858;7.232;2022-10-31T12:09:44;7.27;;;4.50;;
12950;SDS011;6540;50.858;7.232;2022-10-31T12:17:49;5.00;;;3.27;;
12950;SDS011;6540;50.858;7.232;2022-10-31T12:23:16;4.70;;;4.10;;
12950;SDS011;6540;50.858;7.232;2022-10-31T12:25:56;4.60;;;3.40;;
12950;SDS011;6540;50.858;7.232;2022-10-31T12:31:41;5.70;;;3.87;;
12950;SDS011;6540;50.858;7.232;2022-10-31T12:42:55;7.07;;;4.23;;
12950;SDS011;6540;50.858;7.232;2022-10-31T12:45:49;10.03;;;3.30;;
12950;SDS011;6540;50.858;7.232;2022-10-31T12:51:25;7.93;;;4.13;;
12950;SDS011;6540;50.858;7.232;2022-10-31T12:59:59;6.43;;;3.90;;
12950;SDS011;6540;50.858;7.232;2022-10-31T13:02:27;8.57;;;2.97;;
12950;SDS011;6540;50.858;7.232;2022-10-31T13:05:04;6.77;;;4.07;;
12950;SDS011;6540;50.858;7.232;2022-10-31T13:07:46;5.43;;;3.40;;
12950;SDS011;6540;50.858;7.232;2022-10-31T13:10:27;5.27;;;3.47;;
12950;SDS011;6540;50.858;7.232;2022-10-31T13:12:56;5.10;;;3.57;;
12950;SDS011;6540;50.858;7.232;2022-10-31T13:15:28;4.47;;;3.37;;
12950;SDS011;6540;50.858;7.232;2022-10-31T13:17:58;5.00;;;3.53;;
12950;SDS011;6540;50.858;7.232;2022-10-31T13:20:28;4.50;;;3.27;;
12950;SDS011;6540;50.858;7.232;2022-10-31T13:23:03;5.80;;;3.90;;
12950;SDS011;6540;50.858;7.232;2022-10-31T13:25:38;6.57;;;3.27;;
12950;SDS011;6540;50.858;7.232;2022-10-31T13:31:00;5.07;;;3.63;;
12950;SDS011;6540;50.858;7.232;2022-10-31T13:33:28;4.13;;;3.13;;
12950;SDS011;6540;50.858;7.232;2022-10-31T13:36:10;9.00;;;3.40;;
12950;SDS011;6540;50.858;7.232;2022-10-31T13:44:10;6.93;;;3.30;;
12950;SDS011;6540;50.858;7.232;2022-10-31T13:46:40;4.40;;;3.77;;
12950;SDS011;6540;50.858;7.232;2022-10-31T13:49:36;6.47;;;3.43;;
12950;SDS011;6540;50.858;7.232;2022-10-31T13:54:35;4.53;;;3.10;;
12950;SDS011;6540;50.858;7.232;2022-10-31T13:57:01;4.80;;;3.13;;
12950;SDS011;6540;50.858;7.232;2022-10-31T13:59:27;4.03;;;2.97;;
12950;SDS011;6540;50.858;7.232;2022-10-31T14:01:56;5.70;;;3.23;;
12950;SDS011;6540;50.858;7.232;2022-10-31T14:04:37;6.37;;;3.10;;
12950;SDS011;6540;50.858;7.232;2022-10-31T14:07:13;6.60;;;3.03;;
12950;SDS011;6540;50.858;7.232;2022-10-31T14:22:37;3.83;;;2.60;;
12950;SDS011;6540;50.858;7.232;2022-10-31T14:28:02;3.70;;;2.93;;
12950;SDS011;6540;50.858;7.232;2022-10-31T14:30:50;4.07;;;3.23;;
12950;SDS011;6540;50.858;7.232;2022-10-31T14:33:18;5.80;;;3.13;;
12950;SDS011;6540;50.858;7.232;2022-10-31T14:36:02;6.00;;;3.10;;
12950;SDS011;6540;50.858;7.232;2022-10-31T14:41:38;4.00;;;3.00;;
12950;SDS011;6540;50.858;7.232;2022-10-31T14:52:42;3.63;;;2.97;;
12950;SDS011;6540;50.858;7.232;2022-10-31T14:55:14;4.90;;;3.03;;
12950;SDS011;6540;50.858;7.232;2022-10-31T14:57:44;6.17;;;2.90;;
12950;SDS011;6540;50.858;7.232;2022-10-31T15:00:18;7.53;;;2.80;;
12950;SDS011;6540;50.858;7.232;2022-10-31T15:03:11;4.80;;;2.57;;
12950;SDS011;6540;50.858;7.232;2022-10-31T15:05:42;4.83;;;4.03;;
12950;SDS011;6540;50.858;7.232;2022-10-31T15:08:25;5.97;;;3.03;;
12950;SDS011;6540;50.858;7.232;2022-10-31T15:10:54;6.20;;;2.60;;
12950;SDS011;6540;50.858;7.232;2022-10-31T15:13:20;5.93;;;2.30;;
12950;SDS011;6540;50.858;7.232;2022-10-31T15:15:47;6.17;;;2.73;;
12950;SDS011;6540;50.858;7.232;2022-10-31T15:18:17;7.60;;;2.77;;
12950;SDS011;6540;50.858;7.232;2022-10-31T15:20:44;4.87;;;2.83;;
12950;SDS011;6540;50.858;7.232;2022-10-31T15:23:20;3.60;;;2.50;;
12950;SDS011;6540;50.858;7.232;2022-10-31T15:25:48;5.13;;;2.70;;
12950;SDS011;6540;50.858;7.232;2022-10-31T15:28:15;6.83;;;2.80;;
12950;SDS011;6540;50.858;7.232;2022-10-31T15:30:52;5.37;;;2.27;;
12950;SDS011;6540;50.858;7.232;2022-10-31T15:33:21;4.33;;;2.47;;
12950;SDS011;6540;50.858;7.232;2022-10-31T15:35:55;6.00;;;2.57;;
12950;SDS011;6540;50.858;7.232;2022-10-31T15:38:28;6.67;;;2.63;;
12950;SDS011;6540;50.858;7.232;2022-10-31T15:40:59;7.43;;;3.07;;
12950;SDS011;6540;50.858;7.232;2022-10-31T15:43:30;5.30;;;2.93;;
12950;SDS011;6540;50.858;7.232;2022-10-31T15:46:00;2.60;;;2.40;;
12950;SDS011;6540;50.858;7.232;2022-10-31T15:48:27;4.40;;;2.90;;
12950;SDS011;6540;50.858;7.232;2022-10-31T15:50:57;6.07;;;2.80;;
12950;SDS011;6540;50.858;7.232;2022-10-31T15:53:25;3.67;;;2.70;;
12950;SDS011;6540;50.858;7.232;2022-10-31T15:56:10;9.63;;;3.30;;
12950;SDS011;6540;50.858;7.232;2022-10-31T15:58:45;4.83;;;3.70;;
12950;SDS011;6540;50.858;7.232;2022-10-31T16:01:23;7.30;;;3.43;;
12950;SDS011;6540;50.858;7.232;2022-10-31T16:06:37;4.17;;;2.63;;
12950;SDS011;6540;50.858;7.232;2022-10-31T16:09:03;5.67;;;2.90;;
12950;SDS011;6540;50.858;7.232;2022-10-31T16:11:45;4.80;;;2.73;;
12950;SDS011;6540;50.858;7.232;2022-10-31T16:16:42;4.63;;;2.50;;
12950;SDS011;6540;50.858;7.232;2022-10-31T16:19:54;4.00;;;2.97;;
12950;SDS011;6540;50.858;7.232;2022-10-31T16:22:12;8.60;;;3.67;;
12950;SDS011;6540;50.858;7.232;2022-10-31T16:24:45;8.47;;;3.37;;
12950;SDS011;6540;50.858;7.232;2022-10-31T16:27:20;7.40;;;3.60;;
12950;SDS011;6540;50.858;7.232;2022-10-31T16:29:53;5.40;;;3.20;;
12950;SDS011;6540;50.858;7.232;2022-10-31T16:32:25;5.90;;;3.23;;
12950;SDS011;6540;50.858;7.232;2022-10-31T16:34:58;6.70;;;3.30;;
12950;SDS011;6540;50.858;7.232;2022-10-31T16:37:41;4.73;;;3.00;;
12950;SDS011;6540;50.858;7.232;2022-10-31T16:40:08;3.40;;;2.63;;
12950;SDS011;6540;50.858;7.232;2022-10-31T16:42:35;5.30;;;2.50;;
12950;SDS011;6540;50.858;7.232;2022-10-31T16:45:01;6.60;;;3.20;;
12950;SDS011;6540;50.858;7.232;2022-10-31T16:47:26;5.47;;;2.60;;
12950;SDS011;6540;50.858;7.232;2022-10-31T16:49:51;7.57;;;3.87;;
12950;SDS011;6540;50.858;7.232;2022-10-31T16:52:17;4.30;;;3.10;;
12950;SDS011;6540;50.858;7.232;2022-10-31T16:54:42;4.13;;;2.57;;
12950;SDS011;6540;50.858;7.232;2022-10-31T16:57:15;3.93;;;3.23;;
12950;SDS011;6540;50.858;7.232;2022-10-31T16:59:45;4.37;;;3.27;;
12950;SDS011;6540;50.858;7.232;2022-10-31T17:02:14;6.63;;;3.20;;
12950;SDS011;6540;50.858;7.232;2022-10-31T17:04:41;3.57;;;2.77;;
12950;SDS011;6540;50.858;7.232;2022-10-31T17:07:06;7.33;;;3.80;;
12950;SDS011;6540;50.858;7.232;2022-10-31T17:09:32;9.73;;;4.30;;
12950;SDS011;6540;50.858;7.232;2022-10-31T17:11:57;8.77;;;4.60;;
12950;SDS011;6540;50.858;7.232;2022-10-31T17:14:23;8.00;;;4.00;;
12950;SDS011;6540;50.858;7.232;2022-10-31T17:16:49;11.67;;;5.23;;
12950;SDS011;6540;50.858;7.232;2022-10-31T17:19:15;7.33;;;3.13;;
12950;SDS011;6540;50.858;7.232;2022-10-31T17:21:40;5.73;;;3.23;;
12950;SDS011;6540;50.858;7.232;2022-10-31T17:24:06;10.13;;;3.40;;
12950;SDS011;6540;50.858;7.232;2022-10-31T17:26:36;8.23;;;3.37;;
12950;SDS011;6540;50.858;7.232;2022-10-31T17:29:01;4.03;;;3.27;;
12950;SDS011;6540;50.858;7.232;2022-10-31T17:31:29;4.93;;;3.00;;
12950;SDS011;6540;50.858;7.232;2022-10-31T17:33:56;6.67;;;4.23;;
12950;SDS011;6540;50.858;7.232;2022-10-31T17:36:22;7.37;;;3.63;;
12950;SDS011;6540;50.858;7.232;2022-10-31T17:38:48;4.40;;;2.90;;
12950;SDS011;6540;50.858;7.232;2022-10-31T17:41:13;4.40;;;3.40;;
12950;SDS011;6540;50.858;7.232;2022-10-31T17:43:38;4.97;;;3.23;;